Aérodrome :
LOGIN :

S'inscrire | Disclaimer

   EN    FR    IT 

 










Légende :    VFR   VFR Marginal   IFR   IFR Intensif   IFR Très Intensif
Visi : 
Plafond : 
>= 8 km
>= 3000ft
5 à 8 km
1000 à 3000 ft
1500m à 5 km
500 à 1000 ft
800 à 1500m
200 à 500 ft
< 800m
< 200 ft
Symboles :   Orages  Brouillard  Fortes neiges  Fortes précipitations  Vent > 20 kt
SIGMETs :   Divers  Orages  Givrage  Turbulence  Onde Orograph.  Cendres Volcan.






- Altitude de l'aérodrome : 204 ft
- Code IATA : AGF


LFBA - Agen

DERNIER METAR :
  • 041100Z AUTO 32007KT 250V010 9999 FEW049 24/11 Q1019 NOSIG

METARs EXPIRÉS :
  • 041030Z AUTO VRB04KT CAVOK 24/11 Q1019 NOSIG
  • 041000Z AUTO VRB05KT CAVOK 23/12 Q1019 NOSIG
  • 040930Z AUTO 29004KT 240V360 CAVOK 22/13 Q1019 NOSIG
  • 040900Z AUTO 29004KT 220V330 CAVOK 20/14 Q1019 TEMPO BKN009
  • 040830Z AUTO 33004KT 290V040 CAVOK 18/15 Q1019 TEMPO BKN009

TAF TAF LFBA
Valide du 04 à 09h jusqu'au 04 à 18h UTC


040800Z 0409/0418 32005KT CAVOK
PROB40
TEMPO 0409/0410 BKN009



MET'MAP, la Météo Aéronautique d'un coup d'oeil ! - Copyright ORBIFLY Décembre 2007 - Disclaimer

ORBIFLY MET'MAP TEAM :

Programmation & Développement : Alexandra Zaïnal
Sur une idée originale de : Baudouin d'Aumeries
Assistance à la programmation : Marc-Olivier Méhu
Soutien technique & logistique : Manuel Goepfert

Contact : metmap@orbifly.com




SOURCES & CREDITS :

   NOAA